createdAt,value
2018-10-18T00:00:29.411Z,15.20
2018-10-18T00:02:58.863Z,15.30
2018-10-18T00:05:27.822Z,15.30
2018-10-18T00:07:56.714Z,15.20
2018-10-18T00:10:25.546Z,15.20
2018-10-18T00:12:54.483Z,15.20
2018-10-18T00:15:23.303Z,15.20
2018-10-18T00:17:52.131Z,15.20
2018-10-18T00:20:20.960Z,15.30
2018-10-18T00:22:49.799Z,15.30
2018-10-18T00:25:18.647Z,15.40
2018-10-18T00:27:47.455Z,15.40
2018-10-18T00:30:16.348Z,15.40
2018-10-18T00:32:45.178Z,15.40
2018-10-18T00:35:13.961Z,15.30
2018-10-18T00:37:43.119Z,15.30
2018-10-18T00:40:12.531Z,15.40
2018-10-18T00:42:41.906Z,15.40
2018-10-18T00:45:10.766Z,15.40
2018-10-18T00:47:39.645Z,15.30
2018-10-18T00:50:10.110Z,15.40
2018-10-18T00:52:38.950Z,15.40
2018-10-18T00:55:09.431Z,15.40
2018-10-18T00:57:38.627Z,15.30
2018-10-18T01:00:09.346Z,15.30
2018-10-18T01:02:38.528Z,15.30
2018-10-18T01:05:07.458Z,15.30
2018-10-18T01:07:36.246Z,15.30
2018-10-18T01:10:05.162Z,15.30
2018-10-18T01:12:34.030Z,15.30
2018-10-18T01:15:02.803Z,15.30
2018-10-18T01:17:31.610Z,15.40
2018-10-18T01:20:00.455Z,15.30
2018-10-18T01:22:29.329Z,15.40
2018-10-18T01:24:58.153Z,15.40
2018-10-18T01:27:26.972Z,15.40
2018-10-18T01:29:55.787Z,15.30
2018-10-18T01:32:24.691Z,15.30
2018-10-18T01:34:53.483Z,15.20
2018-10-18T01:37:22.295Z,15.20
2018-10-18T01:39:51.151Z,15.10
2018-10-18T01:42:20.119Z,15.10
2018-10-18T01:44:48.895Z,15.20
2018-10-18T01:47:17.705Z,15.20
2018-10-18T01:49:46.498Z,15.10
2018-10-18T01:52:15.552Z,15.20
2018-10-18T01:54:44.342Z,15.20
2018-10-18T01:57:13.148Z,15.30
2018-10-18T01:59:41.978Z,15.30
2018-10-18T02:02:10.995Z,15.20
2018-10-18T02:04:39.775Z,15.20
2018-10-18T02:07:08.594Z,15.20
2018-10-18T02:09:37.412Z,15.00
2018-10-18T02:12:06.714Z,15.00
2018-10-18T02:14:35.419Z,14.90
2018-10-18T02:17:04.391Z,15.00
2018-10-18T02:19:33.187Z,15.00
2018-10-18T02:22:02.029Z,15.10
2018-10-18T02:24:30.846Z,15.10
2018-10-18T02:26:59.709Z,15.00
2018-10-18T02:29:28.517Z,14.90
2018-10-18T02:31:57.355Z,14.80
2018-10-18T02:34:26.163Z,15.00
2018-10-18T02:36:54.972Z,15.00
2018-10-18T02:39:23.783Z,15.00
2018-10-18T02:41:53.084Z,14.90
2018-10-18T02:44:21.876Z,14.90
2018-10-18T02:46:50.643Z,15.00
2018-10-18T02:49:19.422Z,15.00
2018-10-18T02:51:48.302Z,15.10
2018-10-18T02:54:17.230Z,15.00
2018-10-18T02:56:45.923Z,15.00
2018-10-18T02:59:16.310Z,15.00
2018-10-18T03:01:45.191Z,15.00
2018-10-18T03:04:14.011Z,14.90
2018-10-18T03:06:42.807Z,14.90
2018-10-18T03:09:12.286Z,15.00
2018-10-18T03:11:41.511Z,14.90
2018-10-18T03:14:10.311Z,14.90
2018-10-18T03:16:39.103Z,15.00
2018-10-18T03:19:07.878Z,15.00
2018-10-18T03:21:36.700Z,15.00
2018-10-18T03:24:05.780Z,14.80
2018-10-18T03:26:34.523Z,14.80
2018-10-18T03:29:03.343Z,14.90
2018-10-18T03:31:32.173Z,15.00
2018-10-18T03:34:01.070Z,14.90
2018-10-18T03:36:29.928Z,14.90
2018-10-18T03:38:58.751Z,15.00
2018-10-18T03:41:27.583Z,14.80
2018-10-18T03:43:56.398Z,14.90
2018-10-18T03:46:25.242Z,14.80
2018-10-18T03:48:54.046Z,14.80
2018-10-18T03:51:22.854Z,14.70
2018-10-18T03:53:51.754Z,14.70
2018-10-18T03:56:21.427Z,14.60
2018-10-18T03:58:50.244Z,14.70
2018-10-18T04:01:19.094Z,14.70
2018-10-18T04:03:47.981Z,14.80
2018-10-18T04:06:17.072Z,14.80
2018-10-18T04:08:46.098Z,14.70
2018-10-18T04:11:14.954Z,14.60
2018-10-18T04:13:43.815Z,14.70
2018-10-18T04:16:12.678Z,14.80
2018-10-18T04:18:41.503Z,14.80
2018-10-18T04:21:10.335Z,14.80
2018-10-18T04:23:39.191Z,14.80
2018-10-18T04:26:08.003Z,14.80
2018-10-18T04:28:36.862Z,14.70
2018-10-18T04:31:05.715Z,14.70
2018-10-18T04:33:34.632Z,14.70
2018-10-18T04:36:03.464Z,14.70
2018-10-18T04:38:33.265Z,14.70
2018-10-18T04:41:02.152Z,14.70
2018-10-18T04:43:31.006Z,14.60
2018-10-18T04:45:59.912Z,14.80
2018-10-18T04:48:28.746Z,14.80
2018-10-18T04:50:57.764Z,14.80
2018-10-18T04:53:26.684Z,14.80
2018-10-18T04:55:55.467Z,14.70
2018-10-18T04:58:24.283Z,14.70
2018-10-18T05:00:53.107Z,14.80
2018-10-18T05:03:21.963Z,14.70
2018-10-18T05:05:53.631Z,14.60
2018-10-18T05:08:23.559Z,14.60
2018-10-18T05:10:52.642Z,14.70
2018-10-18T05:13:21.583Z,14.70
2018-10-18T05:15:50.475Z,14.60
2018-10-18T05:18:19.715Z,14.70
2018-10-18T05:20:48.580Z,14.60
2018-10-18T05:23:17.477Z,14.50
2018-10-18T05:25:47.007Z,14.50
2018-10-18T05:28:15.871Z,14.60
2018-10-18T05:30:44.718Z,14.70
2018-10-18T05:33:13.782Z,14.70
2018-10-18T05:35:42.776Z,14.60
2018-10-18T05:38:11.664Z,14.50
2018-10-18T05:40:40.564Z,14.50
2018-10-18T05:43:09.497Z,14.50
2018-10-18T05:45:38.234Z,14.40
2018-10-18T05:48:07.167Z,14.40
2018-10-18T05:50:36.047Z,14.40
2018-10-18T05:53:05.262Z,14.40
2018-10-18T05:55:34.127Z,14.40
2018-10-18T05:58:03.060Z,14.40
2018-10-18T06:00:31.991Z,14.40
2018-10-18T06:03:00.927Z,14.50
2018-10-18T06:05:30.179Z,14.40
2018-10-18T06:07:59.170Z,14.30
2018-10-18T06:10:45.208Z,14.40
2018-10-18T06:13:14.288Z,14.40
2018-10-18T06:15:43.207Z,14.30
2018-10-18T06:18:12.151Z,14.30
2018-10-18T06:20:41.066Z,14.30
2018-10-18T06:23:10.851Z,14.40
2018-10-18T06:25:39.835Z,14.50
2018-10-18T06:28:08.758Z,14.40
2018-10-18T06:30:37.703Z,14.50
2018-10-18T06:33:06.728Z,14.60
2018-10-18T06:35:35.595Z,14.60
2018-10-18T06:38:04.563Z,14.60
2018-10-18T06:40:33.474Z,14.70
2018-10-18T06:43:02.479Z,14.70
2018-10-18T06:45:31.380Z,14.70
2018-10-18T06:48:00.281Z,14.80
2018-10-18T06:50:29.107Z,14.80
2018-10-18T06:52:58.091Z,14.90
2018-10-18T06:55:26.963Z,15.00
2018-10-18T06:57:55.858Z,15.00
2018-10-18T07:00:31.971Z,15.00
2018-10-18T07:03:00.849Z,15.00
2018-10-18T07:05:29.755Z,15.00
2018-10-18T07:07:58.631Z,15.00
2018-10-18T07:10:27.621Z,15.00
2018-10-18T07:12:56.661Z,15.10
2018-10-18T07:15:25.575Z,15.10
2018-10-18T07:17:54.488Z,15.20
2018-10-18T07:20:23.404Z,15.30
2018-10-18T07:22:52.388Z,15.30
2018-10-18T07:25:21.318Z,15.30
2018-10-18T07:27:50.203Z,15.30
2018-10-18T07:30:19.166Z,15.30
2018-10-18T07:32:48.150Z,15.40
2018-10-18T07:35:17.024Z,15.40
2018-10-18T07:37:45.881Z,15.40
2018-10-18T07:40:15.603Z,15.40
2018-10-18T07:42:44.689Z,15.50
2018-10-18T07:45:14.199Z,15.50
2018-10-18T07:47:43.795Z,15.50
2018-10-18T07:50:12.895Z,15.60
2018-10-18T07:52:41.801Z,15.60
2018-10-18T07:55:10.958Z,15.50
2018-10-18T07:57:51.915Z,15.60
2018-10-18T08:00:23.102Z,15.60
2018-10-18T08:02:55.202Z,15.60
2018-10-18T08:05:24.103Z,15.50
2018-10-18T08:07:52.966Z,15.60
2018-10-18T08:10:21.843Z,15.60
2018-10-18T08:12:50.755Z,15.70
2018-10-18T08:15:19.661Z,15.70
2018-10-18T08:17:48.562Z,15.70
2018-10-18T08:20:17.439Z,15.80
2018-10-18T08:22:46.322Z,15.80
2018-10-18T08:25:15.250Z,15.80
2018-10-18T08:27:44.127Z,15.80
2018-10-18T08:30:13.570Z,15.90
2018-10-18T08:32:42.495Z,15.90
2018-10-18T08:35:12.081Z,15.90
2018-10-18T08:37:41.124Z,15.90
2018-10-18T08:40:09.969Z,16.00
2018-10-18T08:42:38.883Z,16.00
2018-10-18T08:45:09.283Z,16.00
2018-10-18T08:47:38.260Z,16.00
2018-10-18T08:50:08.595Z,16.10
2018-10-18T08:52:37.761Z,16.10
2018-10-18T08:55:09.406Z,16.10
2018-10-18T08:57:38.251Z,16.20
2018-10-18T09:00:08.554Z,16.20
2018-10-18T09:02:38.279Z,16.20
2018-10-18T09:05:07.567Z,16.20
2018-10-18T09:07:36.987Z,16.30
2018-10-18T09:10:06.778Z,16.40
2018-10-18T09:12:36.127Z,16.40
2018-10-18T09:15:06.758Z,16.50
2018-10-18T09:17:35.908Z,16.60
2018-10-18T09:20:05.416Z,16.60
2018-10-18T09:22:34.423Z,16.70
2018-10-18T09:25:03.425Z,16.70
2018-10-18T09:27:32.343Z,16.70
2018-10-18T09:30:01.273Z,16.80
2018-10-18T09:32:30.679Z,16.80
2018-10-18T09:34:59.581Z,16.90
2018-10-18T09:37:28.462Z,17.00
2018-10-18T09:39:57.361Z,17.00
2018-10-18T09:42:26.254Z,17.10
2018-10-18T09:44:55.142Z,17.30
2018-10-18T09:47:24.103Z,17.50
2018-10-18T09:49:52.988Z,17.70
2018-10-18T09:52:21.980Z,17.90
2018-10-18T09:54:50.871Z,18.10
2018-10-18T09:57:19.792Z,18.30
2018-10-18T09:59:48.675Z,18.40
2018-10-18T10:02:23.319Z,18.60
2018-10-18T10:04:52.211Z,18.70
2018-10-18T10:07:21.106Z,18.90
2018-10-18T10:09:49.979Z,19.00
2018-10-18T10:12:18.991Z,19.20
2018-10-18T10:14:47.954Z,19.40
2018-10-18T10:17:16.982Z,19.50
2018-10-18T10:19:45.807Z,19.60
2018-10-18T10:22:14.770Z,19.80
2018-10-18T10:24:43.805Z,20.00
2018-10-18T10:27:12.602Z,20.00
2018-10-18T10:29:41.483Z,20.20
2018-10-18T10:32:10.463Z,20.20
2018-10-18T10:34:39.338Z,20.20
2018-10-18T10:37:08.334Z,20.20
2018-10-18T10:39:37.138Z,20.40
2018-10-18T10:42:06.988Z,20.50
2018-10-18T10:44:35.891Z,20.60
2018-10-18T10:47:05.491Z,20.80
2018-10-18T10:49:34.354Z,21.00
2018-10-18T10:52:03.373Z,21.40
2018-10-18T10:54:32.253Z,21.60
2018-10-18T10:57:01.136Z,21.80
2018-10-18T10:59:30.012Z,22.20
2018-10-18T11:01:59.015Z,22.30
2018-10-18T11:04:27.874Z,22.30
2018-10-18T11:06:56.754Z,22.50
2018-10-18T11:09:25.772Z,22.60
2018-10-18T11:11:54.731Z,22.60
2018-10-18T11:14:23.537Z,22.60
2018-10-18T11:16:52.407Z,22.90
2018-10-18T11:19:21.322Z,23.10
2018-10-18T11:21:50.221Z,23.10
2018-10-18T11:24:19.245Z,23.30
2018-10-18T11:26:48.094Z,23.50
2018-10-18T11:29:16.962Z,23.80
2018-10-18T11:31:45.862Z,24.10
2018-10-18T11:34:14.772Z,24.00
2018-10-18T11:36:43.643Z,24.20
2018-10-18T11:39:12.515Z,24.00
2018-10-18T11:41:41.405Z,23.50
2018-10-18T11:44:10.411Z,23.40
2018-10-18T11:46:39.211Z,23.40
2018-10-18T11:49:08.099Z,23.50
2018-10-18T11:51:37.071Z,23.60
2018-10-18T11:54:06.080Z,23.70
2018-10-18T11:56:34.949Z,23.60
2018-10-18T11:59:07.335Z,23.30
2018-10-18T12:01:36.999Z,23.20
2018-10-18T12:04:05.962Z,23.30
2018-10-18T12:06:34.855Z,23.40
2018-10-18T12:09:06.163Z,23.30
2018-10-18T12:11:35.028Z,23.40
2018-10-18T12:14:04.702Z,23.40
2018-10-18T12:16:33.578Z,23.60
2018-10-18T12:19:02.612Z,23.50
2018-10-18T12:21:31.533Z,23.40
2018-10-18T12:24:00.459Z,23.20
2018-10-18T12:26:29.335Z,23.30
2018-10-18T12:28:58.258Z,23.30
2018-10-18T12:31:27.208Z,23.20
2018-10-18T12:33:56.116Z,23.00
2018-10-18T12:36:25.003Z,23.00
2018-10-18T12:38:53.894Z,23.20
2018-10-18T12:41:23.076Z,23.30
2018-10-18T12:43:51.781Z,23.20
2018-10-18T12:46:20.683Z,23.00
2018-10-18T12:48:49.543Z,22.90
2018-10-18T12:51:18.431Z,23.00
2018-10-18T12:53:47.346Z,23.20
2018-10-18T12:56:16.349Z,23.40
2018-10-18T12:58:45.300Z,23.70
2018-10-18T13:01:14.191Z,23.90
2018-10-18T13:03:43.147Z,24.10
2018-10-18T13:06:12.117Z,24.20
2018-10-18T13:08:41.703Z,24.20
2018-10-18T13:11:10.583Z,24.30
2018-10-18T13:13:39.476Z,24.50
2018-10-18T13:16:08.566Z,24.50
2018-10-18T13:18:37.440Z,24.30
2018-10-18T13:21:06.291Z,24.30
2018-10-18T13:23:35.291Z,24.20
2018-10-18T13:26:04.536Z,24.10
2018-10-18T13:28:33.432Z,24.30
2018-10-18T13:31:02.302Z,24.30
2018-10-18T13:33:31.279Z,24.40
2018-10-18T13:36:00.434Z,24.30
2018-10-18T13:38:29.347Z,24.10
2018-10-18T13:40:58.260Z,23.80
2018-10-18T13:43:27.398Z,23.60
2018-10-18T13:45:56.278Z,23.50
2018-10-18T13:48:25.156Z,23.40
2018-10-18T13:50:54.071Z,23.30
2018-10-18T13:53:23.579Z,23.20
2018-10-18T13:55:52.598Z,23.10
2018-10-18T13:58:21.480Z,22.90
2018-10-18T14:00:50.752Z,22.90
2018-10-18T14:03:19.871Z,22.90
2018-10-18T14:05:48.896Z,22.70
2018-10-18T14:08:17.765Z,22.70
2018-10-18T14:10:46.627Z,22.60
2018-10-18T14:13:15.663Z,22.50
2018-10-18T14:15:44.555Z,22.40
2018-10-18T14:18:13.472Z,22.20
2018-10-18T14:20:42.385Z,22.10
2018-10-18T14:23:11.447Z,22.10
2018-10-18T14:25:40.350Z,21.90
2018-10-18T14:28:09.267Z,21.90
2018-10-18T14:30:38.237Z,21.80
2018-10-18T14:33:07.197Z,21.80
2018-10-18T14:35:36.094Z,21.70
2018-10-18T14:38:05.174Z,21.80
2018-10-18T14:40:34.043Z,21.90
2018-10-18T14:43:03.001Z,21.90
2018-10-18T14:45:31.895Z,21.90
2018-10-18T14:48:00.816Z,21.80
2018-10-18T14:50:29.807Z,21.70
2018-10-18T14:52:58.727Z,21.70
2018-10-18T14:55:27.628Z,21.70
2018-10-18T14:57:56.668Z,21.50
2018-10-18T15:00:31.410Z,21.40
2018-10-18T15:03:00.452Z,21.40
2018-10-18T15:05:29.335Z,21.30
2018-10-18T15:07:58.287Z,21.20
2018-10-18T15:10:27.159Z,21.10
2018-10-18T15:12:56.078Z,21.20
2018-10-18T15:15:24.984Z,21.10
2018-10-18T15:17:53.922Z,21.10
2018-10-18T15:20:22.856Z,21.00
2018-10-18T15:22:55.194Z,20.80
2018-10-18T15:25:24.292Z,20.80
2018-10-18T15:27:53.191Z,20.80
2018-10-18T15:30:21.986Z,20.80
2018-10-18T15:32:50.891Z,20.80
2018-10-18T15:35:19.769Z,20.70
2018-10-18T15:37:48.694Z,20.70
2018-10-18T15:40:17.603Z,20.60
2018-10-18T15:42:46.539Z,20.60
2018-10-18T15:45:15.603Z,20.50
2018-10-18T15:47:44.444Z,20.40
2018-10-18T15:50:13.312Z,20.30
2018-10-18T15:52:42.382Z,20.20
2018-10-18T15:55:11.488Z,20.10
2018-10-18T15:57:40.367Z,20.00
2018-10-18T16:00:12.267Z,19.90
2018-10-18T16:02:42.262Z,19.70
2018-10-18T16:05:11.542Z,19.60
2018-10-18T16:07:40.388Z,19.50
2018-10-18T16:10:09.751Z,19.40
2018-10-18T16:12:39.063Z,19.30
2018-10-18T16:15:09.477Z,19.20
2018-10-18T16:17:38.392Z,19.10
2018-10-18T16:20:08.902Z,19.00
2018-10-18T16:22:38.518Z,18.90
2018-10-18T16:25:08.823Z,18.90
2018-10-18T16:27:37.771Z,18.70
2018-10-18T16:30:06.826Z,18.60
2018-10-18T16:32:36.122Z,18.70
2018-10-18T16:35:05.286Z,18.60
2018-10-18T16:37:34.126Z,18.50
2018-10-18T16:40:03.102Z,18.50
2018-10-18T16:42:32.015Z,18.40
2018-10-18T16:45:01.002Z,18.30
2018-10-18T16:47:29.876Z,18.30
2018-10-18T16:49:58.824Z,18.20
2018-10-18T16:52:27.683Z,18.10
2018-10-18T16:54:56.558Z,18.00
2018-10-18T16:57:25.439Z,18.00
2018-10-18T16:59:54.337Z,18.00
2018-10-18T17:02:23.852Z,17.90
2018-10-18T17:04:52.743Z,17.90
2018-10-18T17:07:21.706Z,17.70
2018-10-18T17:09:50.567Z,17.70
2018-10-18T17:12:19.661Z,17.60
2018-10-18T17:14:48.419Z,17.50
2018-10-18T17:17:17.307Z,17.50
2018-10-18T17:19:46.194Z,17.50
2018-10-18T17:22:15.250Z,17.50
2018-10-18T17:24:44.284Z,17.40
2018-10-18T17:27:13.273Z,17.30
2018-10-18T17:29:42.120Z,17.20
2018-10-18T17:32:12.235Z,17.10
2018-10-18T17:34:41.053Z,17.10
2018-10-18T17:37:10.063Z,17.00
2018-10-18T17:39:38.938Z,17.00
2018-10-18T17:42:07.945Z,16.90
2018-10-18T17:44:36.756Z,16.90
2018-10-18T17:47:05.751Z,16.90
2018-10-18T17:49:34.618Z,16.90
2018-10-18T17:52:03.646Z,16.90
2018-10-18T17:54:32.540Z,16.80
2018-10-18T17:57:01.451Z,16.80
2018-10-18T17:59:30.426Z,16.70
2018-10-18T18:01:59.459Z,16.80
2018-10-18T18:04:28.403Z,16.70
2018-10-18T18:06:57.362Z,16.70
2018-10-18T18:09:26.367Z,16.70
2018-10-18T18:11:55.239Z,16.60
2018-10-18T18:14:24.129Z,16.60
2018-10-18T18:16:53.077Z,16.50
2018-10-18T18:19:22.464Z,16.50
2018-10-18T18:21:51.431Z,16.50
2018-10-18T18:24:20.390Z,16.50
2018-10-18T18:26:49.721Z,16.50
2018-10-18T18:29:18.661Z,16.40
2018-10-18T18:31:47.538Z,16.40
2018-10-18T18:34:16.407Z,16.30
2018-10-18T18:36:45.282Z,16.30
2018-10-18T18:39:14.139Z,16.20
2018-10-18T18:41:43.027Z,16.20
2018-10-18T18:44:11.904Z,16.20
2018-10-18T18:46:40.771Z,16.20
2018-10-18T18:49:09.787Z,16.20
2018-10-18T18:51:39.086Z,16.10
2018-10-18T18:54:08.067Z,16.20
2018-10-18T18:56:36.988Z,16.10
2018-10-18T18:59:09.958Z,16.10
2018-10-18T19:01:42.504Z,16.10
2018-10-18T19:04:12.477Z,16.10
2018-10-18T19:06:43.132Z,16.10
2018-10-18T19:09:12.866Z,16.10
2018-10-18T19:11:42.016Z,16.10
2018-10-18T19:14:11.279Z,16.10
2018-10-18T19:16:40.375Z,16.00
2018-10-18T19:19:09.463Z,16.00
2018-10-18T19:21:38.392Z,16.10
2018-10-18T19:24:07.280Z,16.10
2018-10-18T19:26:36.239Z,16.00
2018-10-18T19:29:05.160Z,16.00
2018-10-18T19:31:34.079Z,16.00
2018-10-18T19:34:03.175Z,15.90
2018-10-18T19:36:32.113Z,15.90
2018-10-18T19:39:02.066Z,15.90
2018-10-18T19:41:30.940Z,15.90
2018-10-18T19:43:59.914Z,15.90
2018-10-18T19:46:29.209Z,15.90
2018-10-18T19:48:58.899Z,15.80
2018-10-18T19:51:27.882Z,15.70
2018-10-18T19:53:56.907Z,15.80
2018-10-18T19:56:26.647Z,15.70
2018-10-18T19:58:56.483Z,15.70
2018-10-18T20:01:25.358Z,15.60
2018-10-18T20:03:54.325Z,15.60
2018-10-18T20:06:23.770Z,15.50
2018-10-18T20:08:52.602Z,15.50
2018-10-18T20:11:21.581Z,15.50
2018-10-18T20:13:50.914Z,15.50
2018-10-18T20:16:20.601Z,15.50
2018-10-18T20:18:49.488Z,15.40
2018-10-18T20:21:18.368Z,15.40
2018-10-18T20:23:47.339Z,15.30
2018-10-18T20:26:16.342Z,15.30
2018-10-18T20:28:45.036Z,15.20
2018-10-18T20:31:13.879Z,15.20
2018-10-18T20:33:42.747Z,15.20
2018-10-18T20:36:11.639Z,15.30
2018-10-18T20:38:40.499Z,15.40
2018-10-18T20:41:09.446Z,15.40
2018-10-18T20:43:38.329Z,15.40
2018-10-18T20:46:07.185Z,15.40
2018-10-18T20:48:36.063Z,15.40
2018-10-18T20:51:05.248Z,15.40
2018-10-18T20:53:34.198Z,15.50
2018-10-18T20:56:03.396Z,15.40
2018-10-18T20:58:32.440Z,15.40
2018-10-18T21:01:01.973Z,15.30
2018-10-18T21:03:30.861Z,15.30
2018-10-18T21:05:59.752Z,15.30
2018-10-18T21:08:28.560Z,15.30
2018-10-18T21:10:57.414Z,15.40
2018-10-18T21:13:26.326Z,15.40
2018-10-18T21:15:55.251Z,15.40
2018-10-18T21:18:24.090Z,15.20
2018-10-18T21:20:52.993Z,15.30
2018-10-18T21:23:21.895Z,15.40
2018-10-18T21:25:50.710Z,15.40
2018-10-18T21:28:19.547Z,15.30
2018-10-18T21:30:48.423Z,15.20
2018-10-18T21:33:17.353Z,15.20
2018-10-18T21:35:46.167Z,15.30
2018-10-18T21:38:15.019Z,15.30
2018-10-18T21:40:43.867Z,15.30
2018-10-18T21:43:12.830Z,15.30
2018-10-18T21:45:41.675Z,15.30
2018-10-18T21:48:10.547Z,15.20
2018-10-18T21:50:39.403Z,15.20
2018-10-18T21:53:08.350Z,15.20
2018-10-18T21:55:37.126Z,15.20
2018-10-18T21:58:06.034Z,15.20
2018-10-18T22:00:40.557Z,15.30
2018-10-18T22:03:09.584Z,15.30
2018-10-18T22:05:38.299Z,15.30
2018-10-18T22:08:07.179Z,15.30
2018-10-18T22:10:36.022Z,15.30
2018-10-18T22:13:05.015Z,15.20
2018-10-18T22:15:33.978Z,15.30
2018-10-18T22:18:02.932Z,15.20
2018-10-18T22:20:31.794Z,15.30
2018-10-18T22:23:00.742Z,15.20
2018-10-18T22:25:29.648Z,15.20
2018-10-18T22:27:58.536Z,15.20
2018-10-18T22:30:27.416Z,15.20
2018-10-18T22:32:56.268Z,15.20
2018-10-18T22:35:25.124Z,15.20
2018-10-18T22:37:53.953Z,15.20
2018-10-18T22:40:22.940Z,15.20
2018-10-18T22:42:51.915Z,15.20
2018-10-18T22:45:20.751Z,15.30
2018-10-18T22:47:49.605Z,15.30
2018-10-18T22:50:18.434Z,15.30
2018-10-18T22:52:47.401Z,15.30
2018-10-18T22:55:16.219Z,15.40
2018-10-18T22:57:45.063Z,15.40
2018-10-18T23:00:15.305Z,15.40
2018-10-18T23:02:44.203Z,15.50
2018-10-18T23:05:13.118Z,15.50
2018-10-18T23:07:41.879Z,15.50
2018-10-18T23:10:10.711Z,15.50
2018-10-18T23:12:39.627Z,15.50
2018-10-18T23:15:09.786Z,15.50
2018-10-18T23:17:38.889Z,15.50
2018-10-18T23:20:08.607Z,15.50
2018-10-18T23:22:37.462Z,15.40
2018-10-18T23:25:06.675Z,15.30
2018-10-18T23:27:35.535Z,15.30
2018-10-18T23:30:05.909Z,15.30
2018-10-18T23:32:34.971Z,15.30
2018-10-18T23:35:04.197Z,15.30
2018-10-18T23:37:33.040Z,15.20
2018-10-18T23:40:01.963Z,15.30
2018-10-18T23:42:30.851Z,15.40
2018-10-18T23:44:59.906Z,15.50
2018-10-18T23:47:28.774Z,15.50
2018-10-18T23:50:04.718Z,15.50
2018-10-18T23:52:33.826Z,15.50
2018-10-18T23:55:02.861Z,15.50
2018-10-18T23:57:31.670Z,15.50
